Time;durP1;ratioP1;P1;durP2;ratioP2;P2;SDS_P1;SDS_P2;PMS_P1;PMS_P2;Temp;Humidity;BMP_temperature;BMP_pressure;BME280_temperature;BME280_humidity;BME280_pressure;Samples;Min_cycle;Max_cycle;Signal;HPM_P1;HPM_P2
2021/10/21 00:00:35;;;;;;;8.00;6.00;;;;;;;14.56;63.08;99282.62;88798;1277;86770;-62
2021/10/21 00:02:48;;;;;;;9.50;6.70;;;;;;;14.51;63.18;99281.65;88809;1276;94472;-61
2021/10/21 00:04:55;;;;;;;9.60;6.60;;;;;;;14.46;63.19;99276.40;88824;1275;78406;-63
2021/10/21 00:07:02;;;;;;;9.70;6.50;;;;;;;14.42;63.26;99269.89;88905;1276;82649;-63
2021/10/21 00:09:10;;;;;;;8.20;6.60;;;;;;;14.39;63.30;99273.54;88936;1275;97967;-63
2021/10/21 00:11:21;;;;;;;6.40;5.60;;;;;;;14.34;63.47;99276.09;88942;1276;87457;-63
2021/10/21 00:13:29;;;;;;;12.10;7.00;;;;;;;14.33;63.40;99270.09;88934;1276;94530;-63
2021/10/21 00:15:36;;;;;;;8.70;6.00;;;;;;;14.34;63.40;99264.14;88854;1276;78686;-64
2021/10/21 00:17:44;;;;;;;8.90;5.90;;;;;;;14.31;63.49;99264.86;88836;1277;80579;-63
2021/10/21 00:19:51;;;;;;;10.50;6.60;;;;;;;14.28;63.48;99265.40;88797;1276;98470;-62
2021/10/21 00:21:58;;;;;;;9.40;6.20;;;;;;;14.26;63.60;99268.99;88662;1277;87030;-63
2021/10/21 00:24:07;;;;;;;9.00;6.20;;;;;;;14.23;63.64;99272.20;88828;1277;93509;-62
2021/10/21 00:26:15;;;;;;;10.60;6.80;;;;;;;14.17;63.64;99271.05;88890;1276;78853;-62
2021/10/21 00:28:25;;;;;;;8.70;6.40;;;;;;;14.14;63.73;99260.38;88834;1275;81261;-63
2021/10/21 00:30:33;;;;;;;10.10;6.40;;;;;;;14.14;63.79;99257.79;88816;1275;98812;-62
2021/10/21 00:32:42;;;;;;;7.90;6.70;;;;;;;14.13;63.80;99249.56;88811;1276;87602;-65
2021/10/21 00:34:50;;;;;;;8.20;6.20;;;;;;;14.13;63.81;99246.02;88920;1276;94159;-62
2021/10/21 00:36:57;;;;;;;8.80;5.80;;;;;;;14.11;63.88;99251.08;88935;1277;80337;-63
2021/10/21 00:39:04;;;;;;;8.80;6.40;;;;;;;14.09;63.94;99246.21;88854;1276;83232;-62
2021/10/21 00:41:12;;;;;;;9.60;6.40;;;;;;;14.04;64.01;99241.39;88819;1277;100181;-61
2021/10/21 00:43:20;;;;;;;8.40;6.30;;;;;;;14.02;64.08;99236.46;88803;1277;88588;-61
2021/10/21 00:45:30;;;;;;;8.10;5.90;;;;;;;14.02;64.17;99232.96;88877;1276;95588;-65
2021/10/21 00:47:37;;;;;;;11.00;6.70;;;;;;;13.97;64.22;99227.91;88797;1277;80756;-62
2021/10/21 00:49:45;;;;;;;8.90;7.20;;;;;;;13.92;64.25;99226.89;88838;1276;82606;-61
2021/10/21 00:51:53;;;;;;;7.40;6.10;;;;;;;13.90;64.37;99224.52;88741;1276;98825;-63
2021/10/21 00:54:02;;;;;;;9.50;6.20;;;;;;;13.89;64.46;99224.12;88819;1276;88010;-60
2021/10/21 00:56:13;;;;;;;7.70;6.30;;;;;;;13.88;64.53;99225.85;88928;1276;93494;-62
2021/10/21 00:58:20;;;;;;;8.80;6.80;;;;;;;13.89;64.53;99229.89;88825;1277;78960;-61
2021/10/21 01:00:28;;;;;;;10.10;6.40;;;;;;;13.90;64.58;99227.83;88848;1276;83382;-65
2021/10/21 01:02:35;;;;;;;9.30;6.10;;;;;;;13.89;64.54;99219.77;88840;1277;97673;-67
2021/10/21 01:04:43;;;;;;;7.60;6.60;;;;;;;13.87;64.63;99212.84;88862;1276;87993;-64
2021/10/21 01:06:51;;;;;;;9.20;6.60;;;;;;;13.85;64.66;99213.01;88836;1276;93593;-63
2021/10/21 01:08:59;;;;;;;8.10;6.30;;;;;;;13.82;64.80;99214.95;88830;1276;78363;-66
2021/10/21 01:11:07;;;;;;;10.30;6.20;;;;;;;13.78;64.75;99209.11;88887;1275;82227;-64
2021/10/21 01:13:14;;;;;;;10.80;6.80;;;;;;;13.74;64.77;99205.55;88916;1276;99162;-63
2021/10/21 01:15:27;;;;;;;10.10;6.80;;;;;;;13.71;64.88;99202.92;88926;1276;89081;-67
2021/10/21 01:17:34;;;;;;;8.20;6.30;;;;;;;13.69;64.96;99204.48;88866;1275;92971;-64
2021/10/21 01:19:45;;;;;;;8.00;5.90;;;;;;;13.64;64.98;99199.86;88818;1277;79467;-63
2021/10/21 01:21:55;;;;;;;9.10;6.50;;;;;;;13.59;65.08;99201.33;88871;1276;80327;-62
2021/10/21 01:24:03;;;;;;;10.00;6.80;;;;;;;13.56;65.13;99198.86;88637;1277;99920;-60
2021/10/21 01:26:13;;;;;;;9.90;6.50;;;;;;;13.55;65.26;99194.29;88908;1276;86422;-64
2021/10/21 01:28:20;;;;;;;11.00;6.90;;;;;;;13.56;65.36;99192.52;88815;1277;94667;-63
2021/10/21 01:30:29;;;;;;;9.60;6.50;;;;;;;13.58;65.50;99189.14;88865;1276;80216;-61
2021/10/21 01:32:37;;;;;;;7.50;5.80;;;;;;;13.59;65.53;99188.30;88752;1277;82437;-62
2021/10/21 01:34:47;;;;;;;9.00;6.20;;;;;;;13.58;65.62;99186.64;88782;1276;97247;-63
2021/10/21 01:36:56;;;;;;;8.10;6.60;;;;;;;13.56;65.64;99185.09;88796;1276;88043;-61
2021/10/21 01:39:05;;;;;;;7.40;6.00;;;;;;;13.54;65.66;99182.71;88817;1276;94443;-62
2021/10/21 01:41:12;;;;;;;8.70;6.20;;;;;;;13.52;65.73;99177.40;88643;1277;79108;-61
2021/10/21 01:43:20;;;;;;;9.70;6.80;;;;;;;13.49;65.75;99173.96;88834;1275;80936;-61
2021/10/21 01:45:32;;;;;;;9.70;7.00;;;;;;;13.47;65.74;99168.83;88896;1276;98220;-61
2021/10/21 01:47:39;;;;;;;8.30;6.20;;;;;;;13.43;65.90;99170.15;88827;1276;87949;-61
2021/10/21 01:49:46;;;;;;;8.70;6.90;;;;;;;13.40;65.92;99168.13;88797;1276;93411;-61
2021/10/21 01:51:54;;;;;;;10.90;7.10;;;;;;;13.37;66.05;99167.63;88802;1277;81972;-63
2021/10/21 01:54:01;;;;;;;9.60;7.40;;;;;;;13.37;65.99;99162.46;88806;1277;79950;-62
2021/10/21 01:56:09;;;;;;;7.80;6.50;;;;;;;13.36;66.08;99155.34;88761;1275;98945;-63
2021/10/21 01:58:17;;;;;;;12.00;7.00;;;;;;;13.37;66.11;99158.39;88791;1275;87605;-63
2021/10/21 02:00:27;;;;;;;11.70;7.20;;;;;;;13.34;66.24;99150.30;88852;1277;94188;-63
2021/10/21 02:02:35;;;;;;;10.50;6.70;;;;;;;13.32;66.16;99146.11;88862;1277;79829;-63
2021/10/21 02:04:42;;;;;;;7.50;6.40;;;;;;;13.28;66.39;99141.10;88834;1276;80795;-64
2021/10/21 02:06:49;;;;;;;8.50;7.00;;;;;;;13.25;66.24;99142.23;88752;1277;98411;-63
2021/10/21 02:08:58;;;;;;;10.40;7.40;;;;;;;13.22;66.31;99132.86;88849;1276;86910;-63
2021/10/21 02:11:06;;;;;;;8.40;6.10;;;;;;;13.20;66.39;99129.36;88926;1276;94481;-62
2021/10/21 02:13:13;;;;;;;10.40;7.30;;;;;;;13.18;66.38;99131.33;88801;1277;79920;-61
2021/10/21 02:15:22;;;;;;;8.20;6.70;;;;;;;13.14;66.32;99129.73;88854;1275;79899;-62
2021/10/21 02:17:30;;;;;;;10.50;7.90;;;;;;;13.12;66.43;99128.96;88838;1276;99649;-64
2021/10/21 02:19:38;;;;;;;9.90;7.00;;;;;;;13.11;66.56;99129.86;88791;1276;87589;-63
2021/10/21 02:21:48;;;;;;;9.10;7.10;;;;;;;13.10;66.66;99120.04;88876;1276;93894;-66
2021/10/21 02:23:56;;;;;;;9.30;7.00;;;;;;;13.11;66.56;99120.77;88956;1276;80314;-64
2021/10/21 02:26:04;;;;;;;9.00;7.10;;;;;;;13.10;66.61;99120.91;88729;1278;81328;-64
2021/10/21 02:28:11;;;;;;;9.80;6.50;;;;;;;13.10;66.61;99119.38;88813;1277;99102;-64
2021/10/21 02:30:21;;;;;;;9.30;6.60;;;;;;;13.07;66.65;99115.15;88921;1277;87350;-61
2021/10/21 02:32:29;;;;;;;7.40;6.60;;;;;;;13.05;66.61;99114.40;88922;1275;94136;-66
2021/10/21 02:34:36;;;;;;;10.70;7.50;;;;;;;13.00;66.73;99107.52;88861;1269;77893;-63
2021/10/21 02:36:44;;;;;;;9.00;7.00;;;;;;;12.95;66.86;99106.92;88972;1277;81208;-62
2021/10/21 02:38:51;;;;;;;9.00;6.50;;;;;;;12.93;66.83;99106.66;88931;1276;98869;-63
2021/10/21 02:40:58;;;;;;;9.90;6.70;;;;;;;12.91;66.86;99100.33;88881;1275;87461;-61
2021/10/21 02:43:06;;;;;;;9.60;6.80;;;;;;;12.90;66.99;99099.59;88922;1276;95595;-63
2021/10/21 02:45:14;;;;;;;11.20;7.40;;;;;;;12.90;66.95;99095.89;88863;1276;78786;-63
2021/10/21 02:47:21;;;;;;;9.20;6.70;;;;;;;12.91;66.90;99088.48;88821;1276;82542;-63
2021/10/21 02:49:30;;;;;;;10.40;7.00;;;;;;;12.89;66.94;99087.90;88819;1277;98923;-63
2021/10/21 02:51:40;;;;;;;8.80;6.80;;;;;;;12.90;67.07;99084.58;88792;1277;87944;-66
2021/10/21 02:53:48;;;;;;;8.50;7.10;;;;;;;12.91;67.06;99078.41;88854;1276;94536;-62
2021/10/21 02:55:56;;;;;;;9.40;7.10;;;;;;;12.92;67.04;99075.84;88924;1276;79283;-63
2021/10/21 02:58:03;;;;;;;8.00;6.90;;;;;;;12.91;67.02;99074.46;88935;1276;81295;-63
2021/10/21 03:00:12;;;;;;;9.50;7.40;;;;;;;12.90;67.12;99070.38;88802;1277;99205;-62
2021/10/21 03:02:20;;;;;;;10.60;7.10;;;;;;;12.89;67.00;99069.00;88813;1276;88201;-62
2021/10/21 03:04:27;;;;;;;10.40;7.30;;;;;;;12.90;67.14;99068.04;88791;1277;94538;-62
2021/10/21 03:06:35;;;;;;;10.50;7.60;;;;;;;12.88;67.21;99067.56;88804;1276;81072;-62
2021/10/21 03:08:42;;;;;;;10.50;7.90;;;;;;;12.89;67.28;99069.48;88860;1277;81365;-63
2021/10/21 03:10:50;;;;;;;10.40;7.60;;;;;;;12.91;67.28;99069.90;88925;1277;98671;-63
2021/10/21 03:13:00;;;;;;;11.30;7.70;;;;;;;12.90;67.19;99063.07;88849;1277;87206;-62
2021/10/21 03:15:11;;;;;;;12.40;8.90;;;;;;;12.91;67.23;99058.19;88842;1276;94666;-62
2021/10/21 03:17:18;;;;;;;10.80;8.20;;;;;;;12.91;67.30;99053.60;88702;1277;79029;-61
2021/10/21 03:19:28;;;;;;;10.20;7.20;;;;;;;12.90;67.43;99052.70;88808;1276;80310;-60
2021/10/21 03:21:36;;;;;;;10.00;7.60;;;;;;;12.90;67.33;99048.48;88817;1277;99154;-61
2021/10/21 03:23:43;;;;;;;10.50;7.40;;;;;;;12.92;67.32;99043.44;88801;1277;86772;-62
2021/10/21 03:25:51;;;;;;;10.20;7.70;;;;;;;12.96;67.36;99043.14;88873;1276;94139;-62
2021/10/21 03:27:58;;;;;;;9.50;7.30;;;;;;;12.99;67.48;99037.29;88775;1277;79615;-62
2021/10/21 03:30:09;;;;;;;9.90;7.60;;;;;;;13.01;67.46;99026.38;88869;1277;82078;-61
2021/10/21 03:32:16;;;;;;;10.10;7.80;;;;;;;13.00;67.49;99020.84;88948;1277;97898;-62
2021/10/21 03:34:24;;;;;;;9.10;7.40;;;;;;;13.02;67.37;99018.42;88831;1277;87758;-60
2021/10/21 03:36:32;;;;;;;9.80;7.40;;;;;;;13.01;67.35;99013.90;88931;1276;93974;-62
2021/10/21 03:38:40;;;;;;;11.90;7.60;;;;;;;12.99;67.31;99012.56;88909;1275;80881;-64
2021/10/21 03:40:50;;;;;;;10.80;7.90;;;;;;;12.97;67.39;99000.59;88938;1276;79350;-62
2021/10/21 03:42:58;;;;;;;12.20;8.20;;;;;;;12.93;67.36;98990.52;88834;1275;99096;-62
2021/10/21 03:45:08;;;;;;;14.90;9.20;;;;;;;12.88;67.34;98984.02;88865;1275;86977;-63
2021/10/21 03:47:15;;;;;;;11.60;7.60;;;;;;;12.86;67.44;98980.68;88931;1277;94332;-63
2021/10/21 03:49:26;;;;;;;12.20;8.60;;;;;;;12.85;67.51;98978.61;88955;1277;80926;-64
2021/10/21 03:51:34;;;;;;;11.30;8.50;;;;;;;12.82;67.65;98978.73;88897;1275;81047;-63
2021/10/21 03:53:41;;;;;;;9.60;8.00;;;;;;;12.82;67.74;98983.34;88810;1275;99230;-61
2021/10/21 03:55:54;;;;;;;12.10;8.90;;;;;;;12.81;67.75;98983.11;88912;1276;88381;-63
2021/10/21 03:58:01;;;;;;;9.50;7.30;;;;;;;12.80;67.78;98984.50;88809;1276;95130;-61
2021/10/21 04:00:13;;;;;;;8.90;7.60;;;;;;;12.78;67.73;98982.07;88855;1276;79358;-60
2021/10/21 04:02:20;;;;;;;11.70;8.60;;;;;;;12.76;67.82;98975.90;88788;1272;81313;-61
2021/10/21 04:04:34;;;;;;;10.30;8.10;;;;;;;12.76;67.91;98971.89;88820;1276;98771;-62
2021/10/21 04:06:41;;;;;;;10.70;7.80;;;;;;;12.74;67.98;98977.60;88779;1275;87201;-61
2021/10/21 04:08:51;;;;;;;11.50;7.90;;;;;;;12.74;68.10;98981.23;88797;1278;95071;-61
2021/10/21 04:10:59;;;;;;;9.40;7.70;;;;;;;12.75;68.22;98978.17;88896;1278;79064;-64
2021/10/21 04:13:06;;;;;;;9.00;8.10;;;;;;;12.81;68.25;98973.89;88880;1275;80666;-62
2021/10/21 04:15:14;;;;;;;12.10;7.30;;;;;;;12.85;68.33;98967.81;88883;1276;97281;-62
2021/10/21 04:17:21;;;;;;;14.10;8.70;;;;;;;12.88;68.27;98962.78;88872;1276;87746;-62
2021/10/21 04:19:32;;;;;;;9.60;7.50;;;;;;;12.89;68.28;98957.75;88800;1275;94173;-62
2021/10/21 04:21:42;;;;;;;13.00;8.20;;;;;;;12.89;68.21;98948.16;88824;1276;79501;-62
2021/10/21 04:23:50;;;;;;;11.30;8.20;;;;;;;12.89;68.28;98944.36;88813;1275;81280;-61
2021/10/21 04:25:57;;;;;;;13.40;8.10;;;;;;;12.88;68.32;98945.81;88646;1277;97387;-62
2021/10/21 04:28:05;;;;;;;10.60;7.70;;;;;;;12.90;68.36;98939.18;88826;1277;86971;-63
2021/10/21 04:30:14;;;;;;;10.70;8.00;;;;;;;12.93;68.39;98936.54;88945;1277;94977;-61
2021/10/21 04:32:21;;;;;;;10.30;8.40;;;;;;;12.94;68.47;98933.02;88843;1275;78253;-60
2021/10/21 04:34:30;;;;;;;10.00;8.00;;;;;;;12.96;68.45;98931.40;88818;1275;82972;-61
2021/10/21 04:36:37;;;;;;;8.70;7.60;;;;;;;12.96;68.50;98933.14;88794;1278;99009;-61
2021/10/21 04:38:45;;;;;;;11.90;8.10;;;;;;;12.95;68.41;98926.70;88856;1275;88396;-62
2021/10/21 04:40:52;;;;;;;12.00;8.00;;;;;;;12.90;68.38;98925.20;88776;1275;92966;-63
2021/10/21 04:43:03;;;;;;;11.40;8.50;;;;;;;12.85;68.29;98913.77;88825;1277;79737;-61
2021/10/21 04:45:11;;;;;;;9.80;8.00;;;;;;;12.79;68.44;98921.49;88835;1275;82145;-61
2021/10/21 04:47:18;;;;;;;10.60;8.00;;;;;;;12.73;68.41;98926.94;88883;1275;98648;-62
2021/10/21 04:49:26;;;;;;;10.20;9.00;;;;;;;12.70;68.42;98927.33;88804;1277;88509;-62
2021/10/21 04:51:34;;;;;;;10.30;8.00;;;;;;;12.65;68.61;98926.89;88938;1276;93418;-61
2021/10/21 04:53:41;;;;;;;12.20;8.50;;;;;;;12.62;68.67;98931.27;88804;1276;80350;-61
2021/10/21 04:55:48;;;;;;;12.30;8.60;;;;;;;12.57;68.67;98924.34;88936;1277;82032;-61
2021/10/21 04:57:59;;;;;;;10.20;8.70;;;;;;;12.51;68.76;98921.05;88798;1275;99530;-61
2021/10/21 05:00:10;;;;;;;12.30;9.20;;;;;;;12.45;68.96;98915.08;88882;1276;86466;-62
2021/10/21 05:02:17;;;;;;;11.20;8.70;;;;;;;12.42;68.89;98911.82;88944;1278;95282;-62
2021/10/21 05:04:25;;;;;;;12.20;8.50;;;;;;;12.40;69.02;98903.91;88829;1275;78976;-67
2021/10/21 05:06:35;;;;;;;11.10;8.80;;;;;;;12.36;69.22;98899.03;88794;1276;81419;-65
2021/10/21 05:08:43;;;;;;;12.20;8.40;;;;;;;12.35;69.25;98901.60;88819;1277;98826;-64
2021/10/21 05:10:50;;;;;;;9.30;7.80;;;;;;;12.33;69.43;98902.54;88851;1278;88021;-65
2021/10/21 05:12:58;;;;;;;10.10;7.70;;;;;;;12.27;69.51;98892.70;88850;1276;94465;-64
2021/10/21 05:15:06;;;;;;;11.40;9.60;;;;;;;12.24;69.56;98888.63;88810;1276;80514;-63
2021/10/21 05:17:13;;;;;;;10.90;8.10;;;;;;;12.23;69.76;98878.91;88858;1276;80634;-64
2021/10/21 05:19:21;;;;;;;10.10;7.60;;;;;;;12.24;69.76;98867.30;88949;1276;98466;-64
2021/10/21 05:21:28;;;;;;;10.00;7.90;;;;;;;12.28;69.95;98863.58;88933;1276;88600;-65
2021/10/21 05:23:36;;;;;;;10.20;7.80;;;;;;;12.31;69.97;98870.43;88924;1275;94262;-63
2021/10/21 05:25:43;;;;;;;10.50;8.30;;;;;;;12.38;70.07;98871.91;88933;1276;79923;-64
2021/10/21 05:27:51;;;;;;;10.50;8.30;;;;;;;12.42;70.13;98866.38;88909;1277;83195;-64
2021/10/21 05:29:58;;;;;;;11.40;8.50;;;;;;;12.47;70.14;98863.11;88723;1277;99087;-66
2021/10/21 05:32:07;;;;;;;9.70;8.10;;;;;;;12.50;70.20;98857.91;88917;1275;87448;-67
2021/10/21 05:34:17;;;;;;;10.00;8.90;;;;;;;12.55;70.20;98849.41;88934;1277;95714;-67
2021/10/21 05:36:25;;;;;;;11.10;7.50;;;;;;;12.60;70.16;98846.22;88922;1275;78621;-65
2021/10/21 05:38:32;;;;;;;10.00;8.60;;;;;;;12.65;70.15;98837.44;88923;1275;79848;-65
2021/10/21 05:40:40;;;;;;;10.60;7.90;;;;;;;12.71;70.14;98833.97;88938;1276;100399;-62
2021/10/21 05:42:48;;;;;;;42.50;28.30;;;;;;;12.75;70.06;98833.84;88940;1277;88122;-61
2021/10/21 05:44:59;;;;;;;21.50;15.70;;;;;;;12.80;69.92;98835.99;88858;1278;94822;-65
2021/10/21 05:47:07;;;;;;;15.60;12.10;;;;;;;12.83;69.94;98835.84;88876;1277;77711;-64
2021/10/21 05:49:15;;;;;;;11.30;8.90;;;;;;;12.85;69.90;98836.54;88827;1277;83504;-64
2021/10/21 05:51:22;;;;;;;10.70;8.60;;;;;;;12.90;69.79;98838.69;88863;1278;99964;-67
2021/10/21 05:53:29;;;;;;;11.90;8.30;;;;;;;12.93;69.68;98835.66;88827;1277;88096;-65
2021/10/21 05:55:40;;;;;;;11.80;8.20;;;;;;;12.98;69.80;98825.71;88878;1275;95276;-61
2021/10/21 05:57:47;;;;;;;8.80;7.30;;;;;;;13.03;69.72;98823.26;88928;1275;78784;-62
2021/10/21 05:59:58;;;;;;;11.10;8.00;;;;;;;13.08;69.56;98817.13;88977;1276;83229;-62
2021/10/21 06:02:09;;;;;;;9.30;8.10;;;;;;;13.12;69.57;98808.16;88955;1278;98477;-61
2021/10/21 06:04:16;;;;;;;10.30;8.00;;;;;;;13.16;69.42;98802.27;88981;1275;86135;-62
2021/10/21 06:06:24;;;;;;;9.60;8.10;;;;;;;13.20;69.51;98805.33;88961;1276;94109;-65
2021/10/21 06:08:32;;;;;;;13.70;8.60;;;;;;;13.24;69.41;98811.35;88820;1275;81195;-63
2021/10/21 06:10:40;;;;;;;10.20;7.60;;;;;;;13.30;69.34;98814.66;88860;1277;80996;-61
2021/10/21 06:12:51;;;;;;;10.10;7.80;;;;;;;13.34;69.08;98807.79;88710;1278;100205;-61
2021/10/21 06:15:04;;;;;;;10.20;8.30;;;;;;;13.42;69.23;98806.08;88935;1278;87545;-62
2021/10/21 06:17:13;;;;;;;11.80;8.10;;;;;;;13.51;69.09;98802.80;88927;1278;94569;-61
2021/10/21 06:19:21;;;;;;;9.80;7.70;;;;;;;13.59;68.91;98801.41;88900;1275;78986;-61
2021/10/21 06:21:29;;;;;;;9.20;7.70;;;;;;;13.66;68.85;98798.92;88915;1276;80181;-62
2021/10/21 06:23:37;;;;;;;11.60;7.90;;;;;;;13.74;68.68;98795.34;88923;1275;99414;-61
2021/10/21 06:25:46;;;;;;;9.90;7.80;;;;;;;13.80;68.48;98788.66;88896;1277;86741;-61
2021/10/21 06:27:55;;;;;;;9.30;7.90;;;;;;;13.87;68.29;98789.19;88748;1277;93598;-62
2021/10/21 06:30:03;;;;;;;11.70;7.50;;;;;;;13.92;68.23;98783.60;88927;1278;80589;-62
2021/10/21 06:32:12;;;;;;;10.40;7.70;;;;;;;13.95;68.04;98790.06;88871;1276;81349;-62
2021/10/21 06:34:20;;;;;;;11.40;8.40;;;;;;;13.95;68.09;98799.50;88505;1278;254626;-62
2021/10/21 06:36:28;;;;;;;10.70;7.50;;;;;;;13.97;68.01;98795.42;88913;1278;88755;-62
2021/10/21 06:38:39;;;;;;;11.70;8.10;;;;;;;13.98;67.89;98788.38;88849;1277;94609;-61
2021/10/21 06:40:47;;;;;;;10.30;7.80;;;;;;;14.02;67.97;98787.17;88877;1276;78976;-64
2021/10/21 06:42:56;;;;;;;9.30;7.60;;;;;;;14.06;67.94;98787.73;88931;1275;82179;-64
2021/10/21 06:45:04;;;;;;;10.90;8.10;;;;;;;14.08;67.82;98792.79;88904;1277;100046;-63
2021/10/21 06:47:12;;;;;;;14.60;8.20;;;;;;;14.09;67.62;98794.92;88910;1275;87425;-71
2021/10/21 06:49:19;;;;;;;14.00;8.10;;;;;;;14.08;67.64;98793.34;88837;1276;94251;-70
2021/10/21 06:51:27;;;;;;;10.20;8.50;;;;;;;14.09;67.60;98788.63;88916;1276;78476;-70
2021/10/21 06:53:36;;;;;;;10.00;8.20;;;;;;;14.10;67.64;98787.01;88925;1275;80916;-62
2021/10/21 06:55:44;;;;;;;9.30;7.80;;;;;;;14.11;67.62;98796.47;88798;1276;98054;-64
2021/10/21 06:57:57;;;;;;;14.00;8.10;;;;;;;14.13;67.60;98801.88;88916;1278;87340;-64
2021/10/21 07:00:06;;;;;;;10.70;8.00;;;;;;;14.13;67.60;98810.78;88774;1276;94552;-62
2021/10/21 07:02:20;;;;;;;10.00;8.00;;;;;;;14.10;67.50;98812.64;88912;1275;80215;-63
2021/10/21 07:04:32;;;;;;;32.50;21.50;;;;;;;14.12;67.50;98826.63;88754;1277;81486;-62
2021/10/21 07:06:47;;;;;;;12.50;9.20;;;;;;;14.13;67.31;98830.40;88763;1276;99604;-62
2021/10/21 07:09:01;;;;;;;13.10;8.60;;;;;;;14.15;67.20;98835.52;88825;1253;87946;-66
2021/10/21 07:11:12;;;;;;;12.30;9.10;;;;;;;14.17;67.32;98836.37;88678;1277;92922;-64
2021/10/21 07:13:19;;;;;;;12.90;8.70;;;;;;;14.17;67.12;98841.31;88706;1277;80285;-64
2021/10/21 07:15:27;;;;;;;12.80;8.60;;;;;;;14.17;67.15;98843.10;88729;1277;83157;-64
2021/10/21 07:17:40;;;;;;;11.40;8.50;;;;;;;14.16;67.15;98838.98;88660;1277;98396;-62
2021/10/21 07:19:49;;;;;;;9.40;8.20;;;;;;;14.15;67.06;98834.23;88686;1277;88390;-61
2021/10/21 07:21:56;;;;;;;10.20;8.40;;;;;;;14.13;67.15;98823.27;88639;1278;93380;-63
2021/10/21 07:24:08;;;;;;;11.40;8.40;;;;;;;14.11;67.10;98815.54;88712;1278;78369;-64
2021/10/21 07:26:17;;;;;;;10.50;8.10;;;;;;;14.08;67.15;98813.59;88782;1278;82515;-63
2021/10/21 07:28:29;;;;;;;11.50;8.40;;;;;;;14.05;67.11;98803.13;88741;1277;99277;-64
2021/10/21 07:30:38;;;;;;;10.80;8.30;;;;;;;14.02;67.02;98802.70;88786;1278;85900;-63
2021/10/21 07:32:49;;;;;;;11.60;8.30;;;;;;;14.01;67.01;98800.91;88653;1278;95150;-62
2021/10/21 07:34:56;;;;;;;11.20;8.50;;;;;;;14.02;67.13;98801.33;88705;1277;81295;-63
2021/10/21 07:37:07;;;;;;;13.20;8.40;;;;;;;14.04;66.99;98803.64;88705;1278;82264;-67
2021/10/21 07:39:20;;;;;;;10.20;8.80;;;;;;;14.03;67.03;98802.23;88711;1278;100773;-65
2021/10/21 07:41:31;;;;;;;10.80;8.20;;;;;;;14.05;67.17;98800.42;88720;1278;88735;-63
2021/10/21 07:43:46;;;;;;;10.70;8.60;;;;;;;14.08;67.23;98794.36;88727;1278;96148;-63
2021/10/21 07:45:54;;;;;;;13.60;8.70;;;;;;;14.10;67.31;98800.75;88759;1278;80060;-64
2021/10/21 07:48:02;;;;;;;13.10;9.20;;;;;;;14.10;67.55;98788.42;88748;1278;81212;-64
2021/10/21 07:50:14;;;;;;;13.40;8.80;;;;;;;14.09;67.62;98788.63;88735;1277;99399;-64
2021/10/21 07:52:22;;;;;;;11.90;8.90;;;;;;;14.07;67.89;98785.45;88763;1277;87355;-64
2021/10/21 07:54:30;;;;;;;12.80;9.60;;;;;;;14.05;67.92;98776.73;88722;1278;94899;-64
2021/10/21 07:56:38;;;;;;;12.30;9.00;;;;;;;14.05;67.97;98772.93;88688;1278;80410;-65
2021/10/21 07:58:46;;;;;;;10.80;9.40;;;;;;;14.05;67.83;98769.84;88671;1277;82489;-64
2021/10/21 08:00:54;;;;;;;12.10;9.30;;;;;;;14.05;67.96;98763.80;88683;1277;98592;-69
2021/10/21 08:03:02;;;;;;;11.60;8.90;;;;;;;14.01;67.96;98768.48;88719;1277;88416;-63
2021/10/21 08:05:12;;;;;;;12.20;9.40;;;;;;;14.00;68.15;98778.71;88730;1278;95146;-61
2021/10/21 08:07:19;;;;;;;13.70;9.50;;;;;;;13.98;68.40;98789.55;88694;1278;81213;-63
2021/10/21 08:09:29;;;;;;;11.60;9.50;;;;;;;13.93;68.79;98788.85;88665;1276;82200;-64
2021/10/21 08:11:38;;;;;;;12.30;9.00;;;;;;;13.91;69.04;98790.54;88674;1277;98700;-63
2021/10/21 08:13:49;;;;;;;11.00;9.70;;;;;;;13.87;69.37;98794.83;88768;1278;86845;-63
2021/10/21 08:15:57;;;;;;;14.00;10.00;;;;;;;13.83;69.43;98787.45;88660;1277;93059;-59
2021/10/21 08:18:13;;;;;;;13.90;9.70;;;;;;;13.82;69.61;98786.60;88712;1278;82311;-61
2021/10/21 08:20:27;;;;;;;15.30;10.50;;;;;;;13.81;70.05;98785.89;88705;1276;81066;-62
2021/10/21 08:22:36;;;;;;;;;;;;;;;13.78;70.28;98780.86;88709;1277;98314;-62
2021/10/21 08:24:43;;;;;;;13.90;10.70;;;;;;;13.75;70.58;98785.53;88749;1278;87651;-63
2021/10/21 08:26:52;;;;;;;13.40;9.80;;;;;;;13.73;70.76;98788.70;88652;1277;94734;-64
2021/10/21 08:29:02;;;;;;;13.90;10.50;;;;;;;13.71;71.12;98777.42;88740;1278;81009;-63
2021/10/21 08:31:09;;;;;;;14.20;10.30;;;;;;;13.70;71.25;98770.33;88692;1276;80757;-64
2021/10/21 08:33:20;;;;;;;14.20;9.80;;;;;;;13.70;71.18;98773.20;88683;1278;99910;-66
2021/10/21 08:35:32;;;;;;;12.50;10.30;;;;;;;13.66;71.64;98781.81;88660;1277;88776;-64
2021/10/21 08:37:39;;;;;;;12.00;9.80;;;;;;;13.63;71.94;98784.27;88710;1277;93541;-64
2021/10/21 08:39:47;;;;;;;11.60;10.30;;;;;;;13.59;72.07;98782.38;88750;1277;81403;-66
2021/10/21 08:41:58;;;;;;;13.70;11.20;;;;;;;13.59;72.21;98777.32;88761;1278;82003;-64
2021/10/21 08:44:06;;;;;;;11.70;10.30;;;;;;;13.58;72.27;98770.48;88728;1278;99615;-66
2021/10/21 08:46:20;;;;;;;14.50;11.10;;;;;;;13.59;72.66;98775.15;88761;1277;87997;-66
2021/10/21 08:48:29;;;;;;;13.60;10.30;;;;;;;13.55;73.05;98770.16;88719;1278;95526;-65
2021/10/21 08:50:39;;;;;;;12.90;10.80;;;;;;;13.54;73.01;98773.55;88764;1277;79351;-67
2021/10/21 08:52:50;;;;;;;13.20;10.50;;;;;;;13.48;73.45;98765.92;88765;1277;82955;-64
2021/10/21 08:55:01;;;;;;;16.20;11.20;;;;;;;13.43;73.59;98758.67;88686;1278;99052;-67
2021/10/21 08:57:12;;;;;;;15.30;10.80;;;;;;;13.42;73.92;98756.98;88712;1275;86587;-65
2021/10/21 08:59:20;;;;;;;12.60;10.20;;;;;;;13.41;74.10;98737.80;88652;1277;94566;-65
2021/10/21 09:01:36;;;;;;;13.60;11.70;;;;;;;13.36;74.58;98725.41;88665;1277;80183;-65
2021/10/21 09:03:57;;;;;;;13.60;11.00;;;;;;;13.33;74.70;98719.90;88732;1278;81931;-64
2021/10/21 09:06:25;;;;;;;14.70;11.00;;;;;;;13.28;74.95;98729.31;88679;1278;97867;-64
2021/10/21 09:08:45;;;;;;;14.60;11.70;;;;;;;13.27;74.91;98727.38;88657;1277;88787;-65
2021/10/21 09:10:56;;;;;;;13.60;11.00;;;;;;;13.28;74.84;98730.28;88664;1277;94979;-67
2021/10/21 09:13:04;;;;;;;14.30;11.40;;;;;;;13.29;75.21;98732.31;88712;1277;79115;-65
2021/10/21 09:15:16;;;;;;;13.70;11.10;;;;;;;13.28;75.26;98727.20;88722;1277;82376;-65
2021/10/21 09:17:29;;;;;;;15.80;12.50;;;;;;;13.22;75.69;98696.45;88645;1275;98498;-66
2021/10/21 09:19:41;;;;;;;14.90;12.10;;;;;;;13.15;75.90;98662.02;88649;1278;87520;-66
2021/10/21 09:21:49;;;;;;;15.90;12.40;;;;;;;13.14;76.02;98672.45;88651;1271;93485;-65
2021/10/21 09:23:56;;;;;;;13.80;12.10;;;;;;;13.11;76.15;98660.27;88686;1277;80782;-64
2021/10/21 09:26:11;;;;;;;14.70;11.90;;;;;;;13.16;76.14;98666.74;88652;1278;81931;-62
2021/10/21 09:28:26;;;;;;;15.20;12.10;;;;;;;13.13;76.52;98682.75;88643;1277;98484;-63
2021/10/21 09:30:35;;;;;;;15.30;13.00;;;;;;;13.07;76.73;98682.75;88666;1277;87583;-63
2021/10/21 09:32:46;;;;;;;17.20;13.00;;;;;;;13.07;76.59;98687.35;88633;1277;94457;-64
2021/10/21 09:34:56;;;;;;;16.50;12.30;;;;;;;13.04;76.73;98682.04;88654;1277;81329;-63
2021/10/21 09:37:11;;;;;;;14.50;12.90;;;;;;;12.98;76.95;98675.61;88693;1277;81445;-64
2021/10/21 09:39:18;;;;;;;14.40;12.80;;;;;;;12.96;77.09;98657.31;88719;1277;99125;-65
2021/10/21 09:41:33;;;;;;;14.30;12.30;;;;;;;12.98;77.38;98645.13;88642;1277;87427;-66
2021/10/21 09:43:40;;;;;;;17.00;12.10;;;;;;;12.96;77.17;98633.46;88649;1277;94385;-67
2021/10/21 09:45:51;;;;;;;14.50;12.90;;;;;;;12.97;77.23;98617.89;88725;1277;80730;-66
2021/10/21 09:48:01;;;;;;;14.30;12.70;;;;;;;12.97;77.35;98619.80;88782;1277;81207;-65
2021/10/21 09:50:26;;;;;;;16.80;12.70;;;;;;;12.95;77.49;98622.11;88750;1277;99263;-66
2021/10/21 09:52:34;;;;;;;15.20;12.80;;;;;;;13.00;77.67;98624.02;88789;1277;88530;-64
2021/10/21 09:54:43;;;;;;;15.40;13.80;;;;;;;13.06;77.58;98622.73;88767;1277;95236;-63
2021/10/21 09:57:03;;;;;;;17.80;14.20;;;;;;;13.11;77.52;98619.55;88758;1277;79866;-63
2021/10/21 09:59:14;;;;;;;15.60;13.20;;;;;;;13.14;77.44;98621.77;88804;1278;80027;-61
2021/10/21 10:01:21;;;;;;;16.90;14.10;;;;;;;13.23;77.50;98616.48;88699;1277;96958;-63